Time;durP1;ratioP1;P1;durP2;ratioP2;P2;SDS_P1;SDS_P2;PMS_P1;PMS_P2;Temp;Humidity;BMP_temperature;BMP_pressure;BME280_temperature;BME280_humidity;BME280_pressure;Samples;Min_cycle;Max_cycle;Signal;HPM_P1;HPM_P2
2023/04/02 00:00:02;;;;;;;;;;;17.10;68.50;;;;;;10212290;28;94631;-61
2023/04/02 00:05:19;;;;;;;;;;;17.10;68.50;;;;;;10209989;28;96836;-61
2023/04/02 00:10:25;;;;;;;;;;;17.10;68.30;;;;;;10212015;28;94637;-61
2023/04/02 00:15:27;;;;;;;;;;;17.10;68.50;;;;;;10212612;28;94477;-61
2023/04/02 00:20:31;;;;;;;;;;;17.00;68.30;;;;;;10211838;28;93453;-61
2023/04/02 00:25:35;;;;;;;;;;;17.00;68.20;;;;;;10211670;28;93165;-62
2023/04/02 00:30:37;;;;;;;;;;;17.00;68.30;;;;;;10211829;28;92546;-62
2023/04/02 00:35:39;;;;;;;;;;;17.00;68.20;;;;;;10194040;28;93021;-61
2023/04/02 00:40:41;;;;;;;;;;;17.00;68.30;;;;;;10211543;28;93448;-61
2023/04/02 00:45:49;;;;;;;;;;;17.00;68.10;;;;;;10210620;28;93606;-62
2023/04/02 00:50:52;;;;;;;;;;;17.00;68.10;;;;;;10193507;28;92619;-62
2023/04/02 00:55:56;;;;;;;;;;;17.00;68.00;;;;;;10208336;28;96932;-63
2023/04/02 01:00:58;;;;;;;;;;;17.00;68.00;;;;;;10209632;28;94875;-62
2023/04/02 01:06:13;;;;;;;;;;;16.90;68.90;;;;;;10210717;28;94453;-62
2023/04/02 01:11:27;;;;;;;;;;;16.90;67.80;;;;;;10210159;28;93439;-62
2023/04/02 01:16:28;;;;;;;;;;;16.90;67.80;;;;;;10193413;28;93492;-62
2023/04/02 01:21:30;;;;;;;;;;;16.90;67.70;;;;;;10209731;28;94208;-62
2023/04/02 01:26:45;;;;;;;;;;;16.90;67.60;;;;;;10209480;28;92725;-61
2023/04/02 01:31:48;;;;;;;;;;;16.90;67.50;;;;;;10211405;28;91974;-61
2023/04/02 01:37:08;;;;;;;;;;;16.90;67.50;;;;;;10209814;28;93583;-62
2023/04/02 01:42:18;;;;;;;;;;;16.90;67.50;;;;;;10209232;28;93452;-62
2023/04/02 01:47:26;;;;;;;;;;;16.80;67.50;;;;;;10207600;28;96683;-62
2023/04/02 01:52:36;;;;;;;;;;;16.80;67.40;;;;;;10208260;28;93514;-62
2023/04/02 01:57:40;;;;;;;;;;;16.80;67.40;;;;;;10191066;28;92669;-62
2023/04/02 02:02:45;;;;;;;;;;;16.80;67.40;;;;;;10208624;28;93471;-62
2023/04/02 02:07:48;;;;;;;;;;;16.80;67.40;;;;;;10207572;28;93463;-62
2023/04/02 02:12:51;;;;;;;;;;;16.80;67.40;;;;;;10208150;28;93351;-62
2023/04/02 02:18:01;;;;;;;;;;;16.80;67.40;;;;;;10207333;28;93554;-62
2023/04/02 02:23:03;;;;;;;;;;;16.80;67.30;;;;;;10208935;28;93726;-62
2023/04/02 02:28:40;;;;;;;;;;;16.80;67.40;;;;;;10207976;28;93626;-62
2023/04/02 02:33:45;;;;;;;;;;;16.80;67.30;;;;;;10088873;28;93776;-62
2023/04/02 02:39:03;;;;;;;;;;;16.70;67.30;;;;;;10205537;28;95506;-62
2023/04/02 02:44:12;;;;;;;;;;;16.80;67.10;;;;;;10174996;28;94662;-62
2023/04/02 02:49:16;;;;;;;;;;;16.80;67.10;;;;;;10206163;28;93333;-62
2023/04/02 02:54:18;;;;;;;;;;;16.70;66.90;;;;;;10206677;28;93519;-61
2023/04/02 02:59:21;;;;;;;;;;;16.70;66.80;;;;;;10207450;28;93988;-62
2023/04/02 03:04:23;;;;;;;;;;;16.70;66.80;;;;;;10208170;28;94377;-62
2023/04/02 03:09:45;;;;;;;;;;;16.70;66.80;;;;;;10206954;28;93739;-62
2023/04/02 03:14:52;;;;;;;;;;;16.70;66.60;;;;;;10208134;28;92202;-62
2023/04/02 03:20:00;;;;;;;;;;;16.70;66.50;;;;;;10207092;28;93544;-62
2023/04/02 03:25:24;;;;;;;;;;;16.70;66.50;;;;;;10213942;28;94250;-62
2023/04/02 03:30:31;;;;;;;;;;;16.70;66.40;;;;;;10210665;28;96415;-62
2023/04/02 03:35:39;;;;;;;;;;;16.70;66.40;;;;;;10213987;28;92919;-62
2023/04/02 03:41:02;;;;;;;;;;;16.60;66.30;;;;;;10211993;28;93932;-62
2023/04/02 05:04:16;;;;;;;;;;;16.40;65.10;;;;;;10084183;28;92679;-64
2023/04/02 05:09:26;;;;;;;;;;;16.40;65.00;;;;;;10131169;28;92977;-65
2023/04/02 05:14:41;;;;;;;;;;;16.40;65.00;;;;;;10130802;28;93194;-65
2023/04/02 05:19:57;;;;;;;;;;;16.40;64.90;;;;;;10130738;28;93513;-64
2023/04/02 05:25:08;;;;;;;;;;;16.40;64.80;;;;;;10129821;28;93319;-64
2023/04/02 05:30:21;;;;;;;;;;;16.40;64.90;;;;;;10127095;28;95804;-65
2023/04/02 05:35:27;;;;;;;;;;;16.40;64.80;;;;;;10129650;28;94514;-64
2023/04/02 05:40:40;;;;;;;;;;;16.30;64.60;;;;;;10130152;28;94433;-65
2023/04/02 05:45:44;;;;;;;;;;;16.30;64.60;;;;;;10129726;28;93747;-65
2023/04/02 05:50:51;;;;;;;;;;;16.30;64.60;;;;;;10162331;28;94931;-65
2023/04/02 05:56:16;;;;;;;;;;;16.30;64.60;;;;;;10151848;28;93336;-65
2023/04/02 06:01:37;;;;;;;;;;;16.30;64.40;;;;;;10160784;28;94483;-65
2023/04/02 06:06:42;;;;;;;;;;;16.30;64.40;;;;;;10151937;28;92794;-64
2023/04/02 06:11:46;;;;;;;;;;;16.30;64.50;;;;;;10168467;28;94539;-64
2023/04/02 06:16:48;;;;;;;;;;;16.30;64.50;;;;;;10169624;28;94278;-65
2023/04/02 06:21:51;;;;;;;;;;;16.30;64.40;;;;;;10148930;28;95845;-65
2023/04/02 06:26:56;;;;;;;;;;;16.30;64.40;;;;;;10168342;28;93422;-64
2023/04/02 06:31:59;;;;;;;;;;;16.30;64.50;;;;;;10168477;28;94835;-65
2023/04/02 06:37:12;;;;;;;;;;;16.30;64.40;;;;;;10167611;28;93298;-64
2023/04/02 06:42:19;;;;;;;;;;;16.30;64.40;;;;;;10168309;28;94477;-65
2023/04/02 06:47:30;;;;;;;;;;;16.30;64.40;;;;;;10150672;28;94511;-64
2023/04/02 06:52:35;;;;;;;;;;;16.30;64.30;;;;;;10167726;28;94604;-65
2023/04/02 06:57:37;;;;;;;;;;;16.30;64.30;;;;;;10172882;28;93333;-66
2023/04/02 07:02:39;;;;;;;;;;;16.30;64.40;;;;;;10173512;28;93490;-66
2023/04/02 07:07:41;;;;;;;;;;;16.20;64.30;;;;;;10175017;28;92747;-65
2023/04/02 07:12:43;;;;;;;;;;;16.30;64.20;;;;;;10172307;28;96358;-65
2023/04/02 07:17:45;;;;;;;;;;;16.20;64.10;;;;;;10157442;28;94507;-65
2023/04/02 07:22:47;;;;;;;;;;;16.20;64.10;;;;;;10174976;28;94414;-65
2023/04/02 07:27:49;;;;;;;;;;;16.20;64.00;;;;;;10173725;28;93483;-65
2023/04/02 07:32:51;;;;;;;;;;;16.20;63.90;;;;;;10174414;28;94495;-65
2023/04/02 07:37:53;;;;;;;;;;;16.20;64.00;;;;;;10156791;28;94020;-65
2023/04/02 07:42:54;;;;;;;;;;;16.20;63.90;;;;;;10174468;28;93484;-65
2023/04/02 07:47:56;;;;;;;;;;;16.30;63.80;;;;;;10174094;28;92444;-65
2023/04/02 07:52:58;;;;;;;;;;;16.20;63.70;;;;;;10156181;28;93454;-65
2023/04/02 07:58:00;;;;;;;;;;;16.20;63.70;;;;;;10173275;28;94613;-65
2023/04/02 08:03:03;;;;;;;;;;;16.20;63.70;;;;;;10169561;28;95826;-65
2023/04/02 08:08:04;;;;;;;;;;;16.30;63.90;;;;;;10171521;28;94407;-65
2023/04/02 08:13:06;;;;;;;;;;;16.30;63.90;;;;;;10154945;28;93838;-64
2023/04/02 08:18:09;;;;;;;;;;;16.30;63.80;;;;;;10173690;28;94479;-65
2023/04/02 08:23:15;;;;;;;;;;;16.30;63.80;;;;;;10174206;28;94913;-65
2023/04/02 08:28:17;;;;;;;;;;;16.40;63.70;;;;;;10173413;28;94650;-66
2023/04/02 08:33:19;;;;;;;;;;;16.40;63.70;;;;;;10172115;28;92501;-65
2023/04/02 08:38:21;;;;;;;;;;;16.40;63.70;;;;;;10173419;28;93837;-64
2023/04/02 08:43:29;;;;;;;;;;;16.40;63.50;;;;;;10171183;28;93668;-65
2023/04/02 08:48:32;;;;;;;;;;;16.40;63.30;;;;;;10171232;28;94400;-65
2023/04/02 08:53:36;;;;;;;;;;;16.40;63.10;;;;;;10168520;28;96069;-64
2023/04/02 08:58:41;;;;;;;;;;;16.50;62.70;;;;;;10171023;28;94104;-65
2023/04/02 09:03:45;;;;;;;;;;;16.50;62.60;;;;;;10171331;28;94714;-64
2023/04/02 09:08:48;;;;;;;;;;;16.50;62.20;;;;;;10171458;28;92998;-64
2023/04/02 09:13:53;;;;;;;;;;;16.50;62.00;;;;;;10170463;28;95083;-64
2023/04/02 09:18:54;;;;;;;;;;;16.60;62.00;;;;;;10169141;28;93602;-64
2023/04/02 09:23:56;;;;;;;;;;;16.60;61.80;;;;;;10153035;28;92820;-64
2023/04/02 09:29:01;;;;;;;;;;;16.60;61.40;;;;;;10170424;28;93392;-64
2023/04/02 09:34:23;;;;;;;;;;;16.60;61.60;;;;;;10170462;28;93316;-66
2023/04/02 09:39:25;;;;;;;;;;;16.70;62.20;;;;;;10169940;28;94391;-65
2023/04/02 09:44:29;;;;;;;;;;;16.70;62.50;;;;;;10134548;28;95874;-65
2023/04/02 09:49:35;;;;;;;;;;;16.80;62.60;;;;;;10169298;28;94248;-65
2023/04/02 09:54:41;;;;;;;;;;;16.80;62.30;;;;;;10169910;28;93559;-65
2023/04/02 09:59:43;;;;;;;;;;;16.90;62.10;;;;;;10169807;28;93435;-65
2023/04/02 10:04:46;;;;;;;;;;;17.00;62.20;;;;;;10152149;28;93389;-65
2023/04/02 10:09:56;;;;;;;;;;;17.10;62.20;;;;;;10152054;28;93301;-66
2023/04/02 10:14:58;;;;;;;;;;;17.10;62.00;;;;;;10151437;28;93942;-65
2023/04/02 10:20:05;;;;;;;;;;;17.20;61.90;;;;;;10152028;28;92930;-65
2023/04/02 10:25:18;;;;;;;;;;;17.20;61.70;;;;;;10168074;28;94584;-64
2023/04/02 10:30:29;;;;;;;;;;;17.20;61.80;;;;;;10150499;28;93421;-64
2023/04/02 10:35:31;;;;;;;;;;;17.20;61.90;;;;;;10165576;28;96825;-64
2023/04/02 10:40:34;;;;;;;;;;;17.30;61.70;;;;;;10168623;28;93532;-64
2023/04/02 10:45:42;;;;;;;;;;;17.30;61.70;;;;;;10167225;28;94080;-65
2023/04/02 10:50:50;;;;;;;;;;;17.30;61.70;;;;;;10169094;28;94786;-64
2023/04/02 10:55:54;;;;;;;;;;;17.30;61.70;;;;;;10168026;28;93518;-65
2023/04/02 11:01:01;;;;;;;;;;;17.30;61.70;;;;;;10169190;28;95140;-65
2023/04/02 11:06:10;;;;;;;;;;;17.30;61.80;;;;;;10168427;28;93573;-65
2023/04/02 11:11:12;;;;;;;;;;;17.30;61.80;;;;;;10167593;28;92531;-64
2023/04/02 11:16:16;;;;;;;;;;;17.30;61.90;;;;;;10150015;28;114000;-65
2023/04/02 11:21:37;;;;;;;;;;;17.30;62.30;;;;;;10134723;28;92534;-65
2023/04/02 11:26:52;;;;;;;;;;;17.30;61.80;;;;;;10164800;28;96936;-65
2023/04/02 11:32:12;;;;;;;;;;;17.20;61.80;;;;;;10167038;28;94490;-64
2023/04/02 11:37:33;;;;;;;;;;;17.20;61.80;;;;;;10167735;28;93697;-64
2023/04/02 11:42:35;;;;;;;;;;;17.20;61.60;;;;;;10171294;28;94557;-65
2023/04/02 11:47:37;;;;;;;;;;;17.20;61.70;;;;;;10173442;28;93507;-62
2023/04/02 11:52:44;;;;;;;;;;;17.20;61.70;;;;;;10173825;28;93576;-65
2023/04/02 11:57:54;;;;;;;;;;;17.20;61.90;;;;;;10172794;28;93623;-65
2023/04/02 12:03:19;;;;;;;;;;;17.10;62.00;;;;;;10173061;28;92209;-64
2023/04/02 12:08:24;;;;;;;;;;;17.10;62.00;;;;;;10150753;28;94390;-65
2023/04/02 12:13:52;;;;;;;;;;;17.10;61.70;;;;;;10172484;28;94497;-65
2023/04/02 12:18:54;;;;;;;;;;;17.10;61.80;;;;;;10167618;28;95873;-64
2023/04/02 12:23:57;;;;;;;;;;;17.10;62.20;;;;;;10174047;28;94654;-64
2023/04/02 12:29:14;;;;;;;;;;;17.10;62.20;;;;;;10155820;28;94317;-65
2023/04/02 12:34:20;;;;;;;;;;;17.10;62.40;;;;;;10172477;28;93553;-65
2023/04/02 12:39:22;;;;;;;;;;;17.10;62.40;;;;;;10171720;28;93539;-65
2023/04/02 12:44:28;;;;;;;;;;;17.10;62.60;;;;;;10171958;28;94460;-65
2023/04/02 12:49:30;;;;;;;;;;;17.10;62.60;;;;;;10170718;28;93587;-65
2023/04/02 12:54:35;;;;;;;;;;;17.10;62.60;;;;;;10154158;28;92508;-65
2023/04/02 12:59:38;;;;;;;;;;;17.10;62.80;;;;;;10171052;28;93470;-65
2023/04/02 13:04:48;;;;;;;;;;;17.10;62.80;;;;;;10171880;28;94937;-64
2023/04/02 13:09:51;;;;;;;;;;;17.10;62.90;;;;;;10151011;28;95650;-64
2023/04/02 13:14:54;;;;;;;;;;;17.10;63.10;;;;;;10153164;28;94649;-64
2023/04/02 13:20:16;;;;;;;;;;;17.10;63.10;;;;;;10170200;28;93438;-64
2023/04/02 13:25:19;;;;;;;;;;;17.10;63.20;;;;;;10152869;28;93527;-64
2023/04/02 13:30:23;;;;;;;;;;;17.10;63.30;;;;;;10170539;28;93499;-64
2023/04/02 13:35:26;;;;;;;;;;;17.10;63.30;;;;;;10170383;28;93959;-64
2023/04/02 13:40:27;;;;;;;;;;;17.10;63.30;;;;;;10169789;28;93618;-65
2023/04/02 13:45:35;;;;;;;;;;;17.10;63.30;;;;;;10171849;28;93401;-65
2023/04/02 13:50:37;;;;;;;;;;;17.10;63.40;;;;;;10169756;28;94499;-65
2023/04/02 13:55:40;;;;;;;;;;;17.10;63.40;;;;;;10170004;28;92778;-65
2023/04/02 14:00:42;;;;;;;;;;;17.10;63.50;;;;;;10167681;28;96982;-64
2023/04/02 14:05:45;;;;;;;;;;;17.10;63.60;;;;;;10168628;28;93288;-64
2023/04/02 14:10:51;;;;;;;;;;;17.10;63.60;;;;;;10169361;28;93810;-64
2023/04/02 14:15:58;;;;;;;;;;;17.10;63.70;;;;;;10168473;28;93313;-64
2023/04/02 14:21:05;;;;;;;;;;;17.10;63.70;;;;;;10168909;28;93298;-64
2023/04/02 14:26:10;;;;;;;;;;;17.10;63.70;;;;;;10168507;28;93514;-65
2023/04/02 14:31:21;;;;;;;;;;;17.10;63.80;;;;;;10169159;28;94340;-65
2023/04/02 14:36:27;;;;;;;;;;;17.10;63.90;;;;;;10170164;28;93896;-65
2023/04/02 14:41:33;;;;;;;;;;;17.10;64.00;;;;;;10168442;28;93328;-65
2023/04/02 14:46:35;;;;;;;;;;;17.10;63.90;;;;;;10168000;28;93278;-65
2023/04/02 14:51:40;;;;;;;;;;;17.10;63.90;;;;;;10165453;28;96822;-65
2023/04/02 14:56:50;;;;;;;;;;;17.10;63.90;;;;;;10167909;28;94475;-65
2023/04/02 15:01:55;;;;;;;;;;;17.10;63.90;;;;;;10169288;28;93412;-65
2023/04/02 15:07:16;;;;;;;;;;;17.10;63.90;;;;;;10167926;28;93645;-65
2023/04/02 15:12:20;;;;;;;;;;;17.10;63.90;;;;;;10135961;28;93722;-65
2023/04/02 15:17:22;;;;;;;;;;;17.20;64.00;;;;;;10170689;28;93533;-65
2023/04/02 15:22:46;;;;;;;;;;;17.20;64.00;;;;;;10174528;28;94550;-65
2023/04/02 15:27:55;;;;;;;;;;;17.20;64.00;;;;;;10173849;28;93446;-65
2023/04/02 15:33:17;;;;;;;;;;;17.20;64.20;;;;;;10173853;28;93594;-65
2023/04/02 15:38:20;;;;;;;;;;;17.30;64.20;;;;;;10174261;28;94602;-65
2023/04/02 15:43:27;;;;;;;;;;;17.30;64.20;;;;;;10153534;28;96914;-65
2023/04/02 15:48:47;;;;;;;;;;;17.40;64.30;;;;;;10173962;28;93637;-65
2023/04/02 15:54:02;;;;;;;;;;;17.40;64.30;;;;;;10174194;28;93893;-65
2023/04/02 15:59:22;;;;;;;;;;;17.40;64.30;;;;;;10172970;28;93755;-65
2023/04/02 16:04:36;;;;;;;;;;;17.50;64.30;;;;;;10172917;28;94554;-64
2023/04/02 16:09:44;;;;;;;;;;;17.50;64.30;;;;;;10155752;28;94570;-65
2023/04/02 16:14:47;;;;;;;;;;;17.50;64.20;;;;;;10172809;28;94273;-65
2023/04/02 16:19:55;;;;;;;;;;;17.50;64.30;;;;;;10155950;28;93151;-64
2023/04/02 16:25:06;;;;;;;;;;;17.60;64.50;;;;;;10172247;28;93597;-64
2023/04/02 16:30:08;;;;;;;;;;;17.70;64.50;;;;;;10153450;28;94583;-65
2023/04/02 16:35:30;;;;;;;;;;;17.70;64.30;;;;;;10170008;28;95869;-64
2023/04/02 16:41:07;;;;;;;;;;;17.70;64.20;;;;;;10171786;28;94491;-64
2023/04/02 16:46:28;;;;;;;;;;;17.70;64.20;;;;;;10172161;28;95079;-64
2023/04/02 16:51:44;;;;;;;;;;;17.70;64.20;;;;;;10171396;28;93486;-64
2023/04/02 16:56:52;;;;;;;;;;;17.70;64.10;;;;;;10154650;28;94424;-64
2023/04/02 17:02:03;;;;;;;;;;;17.70;64.10;;;;;;10137827;28;93714;-64
2023/04/02 17:07:16;;;;;;;;;;;17.70;64.10;;;;;;10170806;28;93321;-64
2023/04/02 17:12:25;;;;;;;;;;;17.70;64.20;;;;;;10154504;28;92457;-64
2023/04/02 17:17:27;;;;;;;;;;;17.60;64.10;;;;;;10169738;28;94272;-65
2023/04/02 17:22:29;;;;;;;;;;;17.60;64.00;;;;;;10171483;28;93698;-65
2023/04/02 17:27:38;;;;;;;;;;;17.50;63.90;;;;;;10168332;28;96660;-65
2023/04/02 17:32:39;;;;;;;;;;;17.50;63.90;;;;;;10143094;28;94957;-65
2023/04/02 17:37:45;;;;;;;;;;;17.40;63.80;;;;;;10170590;28;94455;-64
2023/04/02 17:42:59;;;;;;;;;;;17.50;63.80;;;;;;10170215;28;94142;-66
2023/04/02 17:48:03;;;;;;;;;;;17.50;66.10;;;;;;10136395;28;94402;-65
2023/04/02 17:53:07;;;;;;;;;;;17.60;65.30;;;;;;10152762;28;93662;-66
2023/04/02 17:58:40;;;;;;;;;;;17.80;64.40;;;;;;10152904;28;94190;-65
2023/04/02 18:03:42;;;;;;;;;;;18.00;64.10;;;;;;10153038;28;93472;-66
2023/04/02 18:09:06;;;;;;;;;;;18.20;63.60;;;;;;10168847;28;93610;-65
2023/04/02 18:14:13;;;;;;;;;;;18.30;63.30;;;;;;10168154;28;93513;-66
2023/04/02 18:19:16;;;;;;;;;;;18.30;63.10;;;;;;10149542;28;95708;-66
2023/04/02 18:24:21;;;;;;;;;;;18.30;63.20;;;;;;10168747;28;92569;-66
2023/04/02 18:29:37;;;;;;;;;;;18.30;63.30;;;;;;10168378;28;93474;-66
2023/04/02 18:34:46;;;;;;;;;;;18.30;63.60;;;;;;10151593;28;94456;-65
2023/04/02 18:40:07;;;;;;;;;;;18.30;63.80;;;;;;10133553;28;93341;-65
2023/04/02 18:45:13;;;;;;;;;;;18.20;63.40;;;;;;10167384;28;94707;-65
2023/04/02 18:50:17;;;;;;;;;;;18.10;63.60;;;;;;10165344;28;93904;-65
2023/04/02 18:55:20;;;;;;;;;;;18.10;63.80;;;;;;10168588;28;93819;-65
2023/04/02 19:00:29;;;;;;;;;;;18.00;63.80;;;;;;10167117;28;94967;-65
2023/04/02 19:05:34;;;;;;;;;;;18.00;63.70;;;;;;10168558;28;93746;-65
2023/04/02 19:10:37;;;;;;;;;;;17.90;63.70;;;;;;10163858;28;95971;-64
2023/04/02 19:15:49;;;;;;;;;;;17.80;63.80;;;;;;10166997;28;93470;-65
2023/04/02 19:21:00;;;;;;;;;;;17.80;63.90;;;;;;10140333;28;94082;-66
2023/04/02 19:26:07;;;;;;;;;;;17.80;64.10;;;;;;10127595;28;93187;-65
2023/04/02 19:31:18;;;;;;;;;;;17.70;64.30;;;;;;10126176;28;93573;-64
2023/04/02 19:36:28;;;;;;;;;;;17.70;64.30;;;;;;10126418;28;93463;-64
2023/04/02 19:41:36;;;;;;;;;;;17.70;64.20;;;;;;10126383;28;93527;-65
2023/04/02 19:46:38;;;;;;;;;;;17.80;64.20;;;;;;10126591;28;92975;-65
2023/04/02 19:51:40;;;;;;;;;;;17.80;64.10;;;;;;10126218;28;94645;-65
2023/04/02 19:56:42;;;;;;;;;;;17.70;64.00;;;;;;10125692;28;93991;-65
2023/04/02 20:01:43;;;;;;;;;;;17.70;64.00;;;;;;10124660;28;96354;-65
2023/04/02 20:06:45;;;;;;;;;;;17.70;64.00;;;;;;10131591;28;94640;-65
2023/04/02 20:11:47;;;;;;;;;;;17.70;64.10;;;;;;10132755;28;94881;-67
2023/04/02 20:16:49;;;;;;;;;;;17.70;64.20;;;;;;10132760;28;94017;-66
2023/04/02 20:21:51;;;;;;;;;;;17.60;63.80;;;;;;10130918;28;93782;-65
2023/04/02 20:26:53;;;;;;;;;;;17.70;63.50;;;;;;10130501;28;92915;-66
2023/04/02 20:31:55;;;;;;;;;;;17.60;63.10;;;;;;10115000;28;93670;-65
2023/04/02 20:36:57;;;;;;;;;;;17.60;62.80;;;;;;10132097;28;92202;-65
2023/04/02 20:42:01;;;;;;;;;;;17.50;62.50;;;;;;10131911;28;93254;-65
2023/04/02 20:47:03;;;;;;;;;;;17.50;62.40;;;;;;10132134;28;94435;-65
2023/04/02 20:52:05;;;;;;;;;;;17.50;62.30;;;;;;10128438;28;96428;-64
2023/04/02 20:57:06;;;;;;;;;;;17.40;62.20;;;;;;10113621;28;93442;-65
2023/04/02 21:02:09;;;;;;;;;;;17.40;62.20;;;;;;10131100;28;93417;-65
2023/04/02 21:07:11;;;;;;;;;;;17.40;62.00;;;;;;10131035;28;94611;-65
2023/04/02 21:12:13;;;;;;;;;;;17.40;61.80;;;;;;10132361;28;94292;-65
2023/04/02 21:17:14;;;;;;;;;;;17.40;61.70;;;;;;10131533;28;94339;-65
2023/04/02 21:22:16;;;;;;;;;;;17.30;61.70;;;;;;10132010;28;92438;-66
2023/04/02 21:27:18;;;;;;;;;;;17.30;61.50;;;;;;10132262;28;93547;-65
2023/04/02 21:32:20;;;;;;;;;;;17.30;61.40;;;;;;10131124;28;94529;-64
2023/04/02 21:37:22;;;;;;;;;;;17.20;61.40;;;;;;10130437;28;94400;-64
2023/04/02 21:42:25;;;;;;;;;;;17.20;61.40;;;;;;10127951;28;95816;-64
2023/04/02 21:47:26;;;;;;;;;;;17.20;61.40;;;;;;10111530;28;93513;-65
2023/04/02 21:52:28;;;;;;;;;;;17.20;61.30;;;;;;10130326;28;94590;-64
2023/04/02 21:57:30;;;;;;;;;;;17.20;61.20;;;;;;10112968;28;93569;-65
2023/04/02 22:02:31;;;;;;;;;;;17.20;61.10;;;;;;10128945;28;93212;-65
2023/04/02 22:07:33;;;;;;;;;;;17.10;61.00;;;;;;10112096;28;92642;-65
2023/04/02 22:12:35;;;;;;;;;;;17.10;61.00;;;;;;10128854;28;93490;-65
2023/04/02 22:17:37;;;;;;;;;;;17.10;61.00;;;;;;10128825;28;92725;-65
2023/04/02 22:22:39;;;;;;;;;;;17.10;60.90;;;;;;10129449;28;94544;-65
2023/04/02 22:27:40;;;;;;;;;;;17.10;60.90;;;;;;10109989;28;94452;-65
2023/04/02 22:32:42;;;;;;;;;;;17.00;60.70;;;;;;10108961;28;97170;-65
2023/04/02 22:37:46;;;;;;;;;;;17.00;60.60;;;;;;10128477;28;92997;-65
2023/04/02 22:42:48;;;;;;;;;;;17.00;60.60;;;;;;10127574;28;93613;-65
2023/04/02 22:47:50;;;;;;;;;;;16.90;60.40;;;;;;10127063;28;93749;-64
2023/04/02 22:52:52;;;;;;;;;;;16.90;60.30;;;;;;10128545;28;93786;-65
2023/04/02 22:57:53;;;;;;;;;;;16.90;60.30;;;;;;10129183;28;94436;-64
2023/04/02 23:02:55;;;;;;;;;;;16.90;60.30;;;;;;10127780;28;93435;-65
2023/04/02 23:07:57;;;;;;;;;;;16.90;60.20;;;;;;10128207;28;93378;-64
2023/04/02 23:12:59;;;;;;;;;;;16.90;60.10;;;;;;10127125;28;94138;-64
2023/04/02 23:18:00;;;;;;;;;;;16.90;60.00;;;;;;10127749;28;94471;-65
2023/04/02 23:23:03;;;;;;;;;;;16.80;60.00;;;;;;10124178;28;95942;-64
2023/04/02 23:28:05;;;;;;;;;;;16.80;59.80;;;;;;10127170;28;93495;-64
2023/04/02 23:33:07;;;;;;;;;;;16.80;59.80;;;;;;10127153;28;93129;-64
2023/04/02 23:38:08;;;;;;;;;;;16.80;59.70;;;;;;10129553;28;93378;-64
2023/04/02 23:43:10;;;;;;;;;;;16.80;59.60;;;;;;10133721;28;94504;-64
2023/04/02 23:48:12;;;;;;;;;;;16.80;59.60;;;;;;10132999;28;93364;-64
2023/04/02 23:53:15;;;;;;;;;;;16.80;59.60;;;;;;10134149;28;93414;-65
2023/04/02 23:58:17;;;;;;;;;;;16.80;59.50;;;;;;10135013;28;93321;-64
